Time;durP1;ratioP1;P1;durP2;ratioP2;P2;SDS_P1;SDS_P2;PMS_P1;PMS_P2;Temp;Humidity;BMP_temperature;BMP_pressure;BME280_temperature;BME280_humidity;BME280_pressure;Samples;Min_cycle;Max_cycle;Signal;HPM_P1;HPM_P2
2022/04/15 00:01:39;;;;;;;13.77;6.43;;;11.10;99.90;;;;;;5028309;28;20075;-59
2022/04/15 00:04:05;;;;;;;10.07;6.15;;;11.20;99.90;;;;;;5025911;28;20068;-57
2022/04/15 00:06:32;;;;;;;13.13;6.60;;;11.20;99.90;;;;;;5036834;28;20475;-59
2022/04/15 00:08:59;;;;;;;9.55;6.00;;;11.10;99.90;;;;;;5048487;28;20033;-61
2022/04/15 00:11:25;;;;;;;9.38;6.00;;;11.20;99.90;;;;;;5050619;28;20021;-58
2022/04/15 00:13:51;;;;;;;12.70;6.38;;;11.20;99.90;;;;;;5053121;28;20078;-56
2022/04/15 00:16:17;;;;;;;13.20;6.38;;;11.20;99.90;;;;;;5052767;28;20041;-57
2022/04/15 00:18:43;;;;;;;12.95;6.70;;;11.20;99.90;;;;;;5053282;28;20052;-60
2022/04/15 00:21:09;;;;;;;11.38;6.43;;;11.20;99.90;;;;;;5050387;28;20063;-59
2022/04/15 00:23:35;;;;;;;16.38;7.00;;;11.20;99.90;;;;;;5052103;28;20021;-59
2022/04/15 00:26:01;;;;;;;16.30;6.82;;;11.20;99.90;;;;;;5053220;28;20025;-61
2022/04/15 00:28:27;;;;;;;11.77;6.82;;;11.10;99.90;;;;;;5044020;28;20026;-56
2022/04/15 00:30:53;;;;;;;13.52;6.93;;;11.10;99.90;;;;;;5052107;28;20086;-58
2022/04/15 00:33:19;;;;;;;12.27;7.07;;;11.00;99.90;;;;;;5052853;28;20058;-59
2022/04/15 00:35:44;;;;;;;15.60;6.53;;;11.00;99.90;;;;;;5052862;28;20427;-53
2022/04/15 00:38:10;;;;;;;14.02;6.85;;;10.90;99.90;;;;;;5050972;28;20033;-59
2022/04/15 00:40:36;;;;;;;14.27;7.18;;;10.90;99.90;;;;;;5051929;28;20067;-60
2022/04/15 00:43:01;;;;;;;13.20;6.50;;;10.90;99.90;;;;;;5051849;28;20528;-58
2022/04/15 00:45:27;;;;;;;13.35;6.68;;;10.80;99.90;;;;;;5051866;28;20539;-59
2022/04/15 00:47:57;;;;;;;11.27;7.13;;;10.80;99.90;;;;;;5052719;28;20060;-56
2022/04/15 00:50:24;;;;;;;11.95;6.80;;;10.70;99.90;;;;;;5045126;28;20018;-59
2022/04/15 00:52:52;;;;;;;11.43;7.82;;;10.60;99.90;;;;;;5051159;28;20025;-58
2022/04/15 00:55:20;;;;;;;14.63;6.65;;;10.60;99.90;;;;;;5051598;28;20032;-57
2022/04/15 00:57:59;;;;;;;11.70;6.35;;;10.60;99.90;;;;;;5050942;28;20107;-58
2022/04/15 01:00:26;;;;;;;18.70;7.25;;;10.50;99.90;;;;;;5052497;28;20021;-59
2022/04/15 01:02:53;;;;;;;16.35;7.32;;;10.30;99.90;;;;;;5052091;28;20032;-60
2022/04/15 01:05:19;;;;;;;13.00;5.82;;;10.20;99.90;;;;;;5051099;28;20423;-57
2022/04/15 01:07:55;;;;;;;13.20;6.72;;;10.00;99.90;;;;;;5051692;28;20031;-57
2022/04/15 01:10:21;;;;;;;12.43;6.80;;;9.90;99.90;;;;;;5050961;28;20112;-57
2022/04/15 01:12:51;;;;;;;16.02;7.57;;;9.80;99.90;;;;;;5052199;28;20104;-60
2022/04/15 01:15:19;;;;;;;12.52;7.57;;;9.70;99.90;;;;;;5051766;28;20033;-57
2022/04/15 01:17:44;;;;;;;12.95;7.18;;;9.60;99.90;;;;;;5051306;28;20060;-58
2022/04/15 01:20:12;;;;;;;13.52;7.72;;;9.50;99.90;;;;;;5052144;28;20056;-59
2022/04/15 01:22:44;;;;;;;20.23;8.18;;;9.40;99.90;;;;;;5051711;28;20028;-58
2022/04/15 01:25:12;;;;;;;17.13;9.13;;;9.40;99.90;;;;;;5051343;28;20025;-58
2022/04/15 01:27:39;;;;;;;13.82;8.85;;;9.40;99.90;;;;;;5051247;28;20024;-58
2022/04/15 01:30:09;;;;;;;14.88;8.82;;;9.30;99.90;;;;;;5051642;28;20045;-53
2022/04/15 01:32:35;;;;;;;12.70;8.50;;;9.40;99.90;;;;;;5051468;28;20032;-59
2022/04/15 01:35:00;;;;;;;12.52;8.20;;;9.40;99.90;;;;;;5050468;28;20029;-60
2022/04/15 01:37:29;;;;;;;14.80;8.15;;;9.30;99.90;;;;;;5050881;28;20516;-60
2022/04/15 01:39:55;;;;;;;13.98;7.78;;;9.30;99.90;;;;;;5050623;28;20507;-59
2022/04/15 01:44:48;;;;;;;12.98;8.13;;;9.20;99.90;;;;;;5064633;28;20542;-58
2022/04/15 01:47:16;;;;;;;15.93;7.32;;;9.10;99.90;;;;;;5069650;28;20032;-58
2022/04/15 01:49:42;;;;;;;17.13;8.60;;;9.00;99.90;;;;;;5070317;28;20028;-59
2022/04/15 01:52:08;;;;;;;15.40;8.55;;;9.00;99.90;;;;;;5071342;28;20480;-59
2022/04/15 01:54:34;;;;;;;20.42;7.97;;;8.90;99.90;;;;;;5089883;28;20020;-59
2022/04/15 01:56:59;;;;;;;14.13;7.95;;;8.90;99.90;;;;;;5090664;28;20038;-59
2022/04/15 01:59:25;;;;;;;17.33;9.25;;;8.80;99.90;;;;;;5091312;28;20106;-57
2022/04/15 02:01:54;;;;;;;12.13;7.85;;;8.80;99.90;;;;;;5090111;28;20073;-59
2022/04/15 02:04:27;;;;;;;13.60;8.27;;;8.70;99.90;;;;;;5083943;28;20042;-59
2022/04/15 02:06:53;;;;;;;17.50;7.25;;;8.70;99.90;;;;;;5087638;28;20110;-59
2022/04/15 02:09:19;;;;;;;15.43;8.85;;;8.60;99.90;;;;;;5089632;28;20020;-59
2022/04/15 02:11:45;;;;;;;14.55;8.25;;;8.60;99.90;;;;;;5088168;28;20040;-60
2022/04/15 02:14:12;;;;;;;16.65;7.85;;;8.60;99.90;;;;;;5083956;28;20044;-60
2022/04/15 02:16:38;;;;;;;16.80;8.85;;;8.50;99.90;;;;;;5089602;28;20024;-60
2022/04/15 02:19:04;;;;;;;23.63;9.00;;;8.50;99.90;;;;;;5086985;28;20039;-58
2022/04/15 02:21:29;;;;;;;13.23;7.78;;;8.50;99.90;;;;;;5090450;28;20065;-59
2022/04/15 02:23:55;;;;;;;16.17;8.52;;;8.40;99.90;;;;;;5090398;28;20024;-59
2022/04/15 02:26:20;;;;;;;15.63;8.50;;;8.40;99.90;;;;;;5090430;28;20024;-58
2022/04/15 02:28:46;;;;;;;18.50;8.15;;;8.30;99.90;;;;;;5090938;28;20138;-59
2022/04/15 02:31:11;;;;;;;14.68;8.05;;;8.30;99.90;;;;;;5090629;28;20032;-57
2022/04/15 02:33:37;;;;;;;13.65;8.20;;;8.30;99.90;;;;;;5090085;28;20566;-59
2022/04/15 02:36:03;;;;;;;14.90;8.20;;;8.30;99.90;;;;;;5090709;28;20107;-59
2022/04/15 02:38:28;;;;;;;13.35;8.15;;;8.20;99.90;;;;;;5090326;28;20113;-60
2022/04/15 02:40:54;;;;;;;14.27;8.30;;;8.20;99.90;;;;;;5078129;28;20024;-58
2022/04/15 02:43:20;;;;;;;18.85;9.10;;;8.20;99.90;;;;;;5086797;28;20059;-58
2022/04/15 02:45:46;;;;;;;13.15;8.65;;;8.10;99.90;;;;;;5091082;28;20085;-58
2022/04/15 02:48:12;;;;;;;17.73;8.82;;;8.10;99.90;;;;;;5090637;28;20047;-59
2022/04/15 02:50:39;;;;;;;15.85;9.07;;;8.10;99.90;;;;;;5090647;28;20063;-59
2022/04/15 02:53:05;;;;;;;17.10;8.77;;;8.10;99.90;;;;;;5091237;28;20020;-59
2022/04/15 02:55:32;;;;;;;16.63;9.40;;;8.00;99.90;;;;;;5089670;28;20052;-60
2022/04/15 02:57:57;;;;;;;17.20;9.48;;;8.00;99.90;;;;;;5085130;28;20036;-60
2022/04/15 03:00:23;;;;;;;13.20;8.55;;;8.00;99.90;;;;;;5086121;28;20085;-60
2022/04/15 03:02:48;;;;;;;16.60;9.70;;;8.00;99.90;;;;;;5089785;28;20095;-58
2022/04/15 03:05:14;;;;;;;15.10;9.10;;;7.90;99.90;;;;;;5088717;28;20088;-60
2022/04/15 03:07:40;;;;;;;16.90;9.68;;;7.90;99.90;;;;;;5090052;28;20032;-59
2022/04/15 03:10:07;;;;;;;16.08;9.63;;;7.90;99.90;;;;;;5090532;28;20032;-58
2022/04/15 03:12:36;;;;;;;13.73;10.07;;;7.80;99.90;;;;;;5089903;28;20097;-60
2022/04/15 03:15:03;;;;;;;18.50;9.63;;;7.80;99.90;;;;;;5091427;28;20050;-59
2022/04/15 03:17:28;;;;;;;16.65;9.50;;;7.80;99.90;;;;;;5090005;28;20089;-57
2022/04/15 03:19:54;;;;;;;27.95;11.35;;;7.80;99.90;;;;;;5091201;28;20036;-59
2022/04/15 03:22:20;;;;;;;13.93;9.07;;;7.70;99.90;;;;;;5094214;28;20075;-59
2022/04/15 03:24:47;;;;;;;21.13;10.30;;;7.70;99.90;;;;;;5093987;28;20085;-59
2022/04/15 03:27:13;;;;;;;25.95;10.73;;;7.70;99.90;;;;;;5093511;28;20035;-58
2022/04/15 03:29:38;;;;;;;18.50;10.13;;;7.70;99.90;;;;;;5094684;28;20406;-59
2022/04/15 03:32:04;;;;;;;17.52;10.80;;;7.70;99.90;;;;;;5094576;28;20697;-55
2022/04/15 03:34:30;;;;;;;17.30;9.75;;;7.70;99.90;;;;;;5090179;28;20059;-57
2022/04/15 03:36:55;;;;;;;17.20;9.75;;;7.70;99.90;;;;;;5082810;28;20059;-58
2022/04/15 03:39:21;;;;;;;20.50;10.18;;;7.70;99.90;;;;;;5093618;28;20454;-59
2022/04/15 03:41:46;;;;;;;21.65;11.32;;;7.70;99.90;;;;;;5094073;28;20028;-59
2022/04/15 03:44:12;;;;;;;23.25;9.90;;;7.60;99.90;;;;;;5094018;28;20068;-59
2022/04/15 03:46:38;;;;;;;20.00;10.57;;;7.60;99.90;;;;;;5093439;28;20056;-58
2022/04/15 03:49:04;;;;;;;19.80;10.77;;;7.50;99.90;;;;;;5093412;28;20039;-59
2022/04/15 03:51:30;;;;;;;22.17;10.55;;;7.50;99.90;;;;;;5092515;28;20028;-59
2022/04/15 03:53:56;;;;;;;19.77;10.23;;;7.50;99.90;;;;;;5093157;28;20042;-58
2022/04/15 03:56:22;;;;;;;21.08;10.30;;;7.40;99.90;;;;;;5093340;28;20471;-59
2022/04/15 03:58:47;;;;;;;21.13;11.27;;;7.40;99.90;;;;;;5093862;28;20035;-59
2022/04/15 04:01:12;;;;;;;24.48;9.85;;;7.40;99.90;;;;;;5093846;28;20094;-59
2022/04/15 04:03:38;;;;;;;20.08;9.98;;;7.30;99.90;;;;;;5093221;28;20449;-60
2022/04/15 04:06:04;;;;;;;18.25;9.63;;;7.30;99.90;;;;;;5092642;28;20067;-59
2022/04/15 04:08:29;;;;;;;21.48;12.27;;;7.30;99.90;;;;;;5091938;28;20403;-59
2022/04/15 04:10:55;;;;;;;16.85;9.55;;;7.20;99.90;;;;;;5093027;28;20491;-59
2022/04/15 04:13:21;;;;;;;18.95;10.43;;;7.20;99.90;;;;;;5084271;28;20078;-60
2022/04/15 04:15:46;;;;;;;20.08;11.48;;;7.20;99.90;;;;;;5092489;28;20028;-60
2022/04/15 04:18:14;;;;;;;22.17;11.00;;;7.20;99.90;;;;;;5092325;28;20053;-60
2022/04/15 04:20:40;;;;;;;21.85;11.07;;;7.10;99.90;;;;;;5093018;28;20016;-56
2022/04/15 04:23:05;;;;;;;17.40;10.27;;;7.10;99.90;;;;;;5093289;28;20020;-60
2022/04/15 04:25:31;;;;;;;19.13;10.02;;;7.10;99.90;;;;;;5093000;28;20036;-56
2022/04/15 04:27:56;;;;;;;14.70;9.88;;;7.00;99.90;;;;;;5092835;28;20036;-57
2022/04/15 04:30:22;;;;;;;20.27;11.32;;;7.00;99.90;;;;;;5092691;28;20043;-58
2022/04/15 04:32:50;;;;;;;19.58;10.45;;;7.00;99.90;;;;;;5092144;28;20024;-60
2022/04/15 04:35:20;;;;;;;18.70;11.13;;;7.00;99.90;;;;;;5093310;28;20028;-59
2022/04/15 04:37:46;;;;;;;20.10;10.35;;;7.00;99.90;;;;;;5080925;28;20032;-59
2022/04/15 04:40:13;;;;;;;20.42;10.40;;;7.00;99.90;;;;;;5085410;28;20020;-60
2022/04/15 04:42:40;;;;;;;17.25;11.13;;;7.00;99.90;;;;;;5092437;28;20054;-59
2022/04/15 04:45:06;;;;;;;19.98;11.93;;;7.10;99.90;;;;;;5092704;28;20028;-58
2022/04/15 04:47:32;;;;;;;17.13;11.18;;;7.10;99.90;;;;;;5092760;28;20028;-60
2022/04/15 04:50:01;;;;;;;18.27;11.30;;;7.10;99.90;;;;;;5092481;28;20076;-60
2022/04/15 04:52:27;;;;;;;17.98;11.10;;;7.10;99.90;;;;;;5092435;28;20575;-59
2022/04/15 04:54:53;;;;;;;16.88;11.57;;;7.10;99.90;;;;;;5092549;28;20028;-60
2022/04/15 04:57:19;;;;;;;23.98;12.40;;;7.20;99.90;;;;;;5091100;28;20101;-59
2022/04/15 04:59:44;;;;;;;22.10;12.43;;;7.30;99.90;;;;;;5089806;28;20507;-59
2022/04/15 05:02:12;;;;;;;18.15;11.65;;;7.30;99.90;;;;;;5091656;28;20487;-59
2022/04/15 05:04:39;;;;;;;17.13;11.02;;;7.40;99.90;;;;;;5089576;28;20020;-61
2022/04/15 05:07:05;;;;;;;16.35;10.25;;;7.50;99.90;;;;;;5090654;28;20115;-61
2022/04/15 05:09:30;;;;;;;15.70;9.32;;;7.60;99.90;;;;;;5091953;28;20102;-60
2022/04/15 05:11:56;;;;;;;12.80;9.82;;;7.80;99.90;;;;;;5091823;28;20043;-58
2022/04/15 05:14:21;;;;;;;17.17;8.77;;;8.30;99.90;;;;;;5092361;28;20028;-60
2022/04/15 05:16:47;;;;;;;14.25;8.10;;;8.70;99.90;;;;;;5090271;28;20082;-58
2022/04/15 05:19:13;;;;;;;13.50;7.90;;;9.00;99.90;;;;;;5092325;28;20034;-62
2022/04/15 05:21:40;;;;;;;12.82;7.88;;;9.30;99.90;;;;;;5091982;28;20039;-59
2022/04/15 05:24:08;;;;;;;10.20;6.97;;;9.50;99.90;;;;;;5091664;28;20402;-56
2022/04/15 05:26:34;;;;;;;12.02;8.45;;;9.90;99.90;;;;;;5091814;28;20071;-58
2022/04/15 05:29:00;;;;;;;11.70;6.72;;;10.40;99.90;;;;;;5092035;28;20063;-57
2022/04/15 05:31:26;;;;;;;16.20;8.80;;;10.70;99.90;;;;;;5091855;28;20024;-59
2022/04/15 05:33:52;;;;;;;11.43;7.15;;;10.80;99.90;;;;;;5088829;28;20106;-58
2022/04/15 05:36:17;;;;;;;11.65;7.75;;;10.90;99.90;;;;;;5082845;28;20052;-58
2022/04/15 05:38:43;;;;;;;13.77;6.75;;;11.20;99.90;;;;;;5090467;28;20042;-60
2022/04/15 05:41:08;;;;;;;9.88;7.20;;;11.20;99.90;;;;;;5091300;28;20518;-60
2022/04/15 05:43:34;;;;;;;12.73;6.97;;;11.50;99.90;;;;;;5091736;28;20078;-59
2022/04/15 05:45:59;;;;;;;12.73;7.93;;;11.80;99.90;;;;;;5091570;28;20498;-60
2022/04/15 05:48:25;;;;;;;9.85;5.75;;;12.10;99.90;;;;;;5091037;28;20032;-59
2022/04/15 05:50:51;;;;;;;9.55;6.15;;;12.10;99.90;;;;;;5090030;28;20040;-60
2022/04/15 05:53:17;;;;;;;9.63;6.38;;;12.00;99.90;;;;;;5090039;28;20383;-60
2022/04/15 05:55:42;;;;;;;10.38;6.13;;;11.80;99.90;;;;;;5089205;28;20032;-59
2022/04/15 05:58:10;;;;;;;8.95;7.15;;;11.80;99.90;;;;;;5088598;28;20036;-58
2022/04/15 06:00:36;;;;;;;10.93;6.07;;;11.60;99.90;;;;;;5089183;28;20411;-59
2022/04/15 06:03:02;;;;;;;11.60;5.97;;;11.40;99.90;;;;;;5091037;28;20024;-59
2022/04/15 06:05:27;;;;;;;10.82;6.47;;;11.20;99.90;;;;;;5090480;28;20024;-60
2022/04/15 06:07:53;;;;;;;11.57;7.00;;;11.10;99.90;;;;;;5090568;28;20114;-59
2022/04/15 06:10:18;;;;;;;11.85;6.80;;;11.10;99.90;;;;;;5091163;28;20046;-60
2022/04/15 06:15:31;;;;;;;;;;;12.20;99.90;;;;;;5091303;28;20521;-60
2022/04/15 06:17:57;;;;;;;13.48;5.40;;;13.30;99.90;;;;;;5090731;28;19908;-60
2022/04/15 06:20:23;;;;;;;8.95;5.78;;;14.10;99.90;;;;;;5091529;28;20035;-61
2022/04/15 06:22:48;;;;;;;7.75;5.28;;;14.30;99.90;;;;;;5090459;28;20039;-59
2022/04/15 06:25:14;;;;;;;9.23;5.60;;;14.50;99.60;;;;;;5091102;28;20043;-60
2022/04/15 06:27:40;;;;;;;9.15;5.25;;;14.80;98.80;;;;;;5090790;28;20032;-61
2022/04/15 06:30:07;;;;;;;7.82;4.63;;;15.10;98.40;;;;;;5091101;28;20032;-61
2022/04/15 06:32:33;;;;;;;8.95;5.10;;;16.60;97.00;;;;;;5089940;28;20027;-60
2022/04/15 06:34:59;;;;;;;11.57;4.75;;;17.80;93.60;;;;;;5091267;28;20028;-60
2022/04/15 06:37:25;;;;;;;8.00;4.93;;;18.20;92.20;;;;;;5090427;28;20081;-60
2022/04/15 06:39:51;;;;;;;6.15;4.78;;;18.20;91.70;;;;;;5091295;28;20028;-60
2022/04/15 06:42:24;;;;;;;11.93;5.82;;;18.40;90.90;;;;;;5090660;28;20036;-61
2022/04/15 06:44:50;;;;;;;6.93;5.15;;;17.70;91.80;;;;;;5089623;28;20114;-60
2022/04/15 06:47:16;;;;;;;8.65;4.45;;;18.40;90.80;;;;;;5090712;28;20066;-61
2022/04/15 06:49:42;;;;;;;7.38;4.80;;;19.30;90.40;;;;;;5091374;28;20031;-59
2022/04/15 06:52:08;;;;;;;8.23;4.88;;;20.60;86.20;;;;;;5088927;28;20391;-59
2022/04/15 06:54:34;;;;;;;9.48;4.57;;;20.50;83.60;;;;;;5085780;28;20044;-59
2022/04/15 06:57:00;;;;;;;7.10;5.00;;;20.50;84.10;;;;;;5092825;28;20406;-59
2022/04/15 06:59:25;;;;;;;13.73;5.43;;;21.00;82.50;;;;;;5092631;28;20491;-60
2022/04/15 07:01:51;;;;;;;7.10;4.50;;;21.70;80.00;;;;;;5080780;28;20024;-58
2022/04/15 07:04:16;;;;;;;8.88;4.43;;;22.30;77.70;;;;;;5093372;28;20031;-59
2022/04/15 07:06:43;;;;;;;7.57;4.88;;;22.30;76.90;;;;;;5092319;28;20403;-59
2022/04/15 07:09:09;;;;;;;9.43;4.72;;;22.50;73.30;;;;;;5081254;28;20403;-59
2022/04/15 07:11:34;;;;;;;9.23;5.70;;;23.00;72.30;;;;;;5079108;28;20039;-60
2022/04/15 07:14:00;;;;;;;13.07;5.28;;;23.00;71.20;;;;;;5092697;28;20391;-59
2022/04/15 07:16:25;;;;;;;9.70;5.85;;;22.70;72.10;;;;;;5092355;28;20066;-59
2022/04/15 07:18:52;;;;;;;11.63;6.32;;;23.10;70.40;;;;;;5093103;28;20041;-59
2022/04/15 07:21:18;;;;;;;13.05;6.47;;;23.30;70.60;;;;;;5093096;28;20021;-59
2022/04/15 07:23:45;;;;;;;10.52;7.53;;;23.90;68.40;;;;;;5092682;28;20103;-60
2022/04/15 07:26:10;;;;;;;10.93;7.88;;;23.00;69.00;;;;;;5092626;28;20036;-60
2022/04/15 07:28:36;;;;;;;14.57;7.32;;;23.40;69.80;;;;;;5076735;28;20684;-59
2022/04/15 07:31:02;;;;;;;12.93;7.38;;;23.40;67.80;;;;;;5080255;28;20028;-59
2022/04/15 07:33:27;;;;;;;10.35;6.25;;;22.10;71.50;;;;;;5092780;28;20028;-59
2022/04/15 07:35:53;;;;;;;13.00;8.75;;;21.80;72.60;;;;;;5092323;28;20075;-59
2022/04/15 07:38:18;;;;;;;14.35;9.60;;;21.40;72.70;;;;;;5086226;28;20028;-59
2022/04/15 07:40:44;;;;;;;13.05;10.77;;;20.60;74.70;;;;;;5092242;28;20024;-60
2022/04/15 07:43:10;;;;;;;15.27;10.85;;;19.80;77.10;;;;;;5092847;28;20063;-61
2022/04/15 07:45:35;;;;;;;17.83;11.55;;;19.00;81.30;;;;;;5092690;28;20027;-61
2022/04/15 07:48:01;;;;;;;14.30;11.02;;;18.40;84.50;;;;;;5081157;28;20056;-61
2022/04/15 07:50:27;;;;;;;18.88;12.48;;;17.90;86.40;;;;;;5090284;28;20077;-61
2022/04/15 07:52:57;;;;;;;21.25;13.20;;;18.40;85.40;;;;;;5091870;28;20070;-61
2022/04/15 07:55:23;;;;;;;19.65;12.88;;;19.40;83.30;;;;;;5092263;28;20012;-60
2022/04/15 07:57:49;;;;;;;17.85;12.43;;;19.70;82.50;;;;;;5087674;28;20471;-61
2022/04/15 08:00:14;;;;;;;18.27;11.45;;;20.40;80.80;;;;;;5092499;28;20019;-59
2022/04/15 08:02:41;;;;;;;16.48;12.43;;;21.50;77.10;;;;;;5082683;28;20032;-59
2022/04/15 08:05:08;;;;;;;18.85;12.82;;;22.20;74.60;;;;;;5089345;28;20356;-59
2022/04/15 08:07:34;;;;;;;15.02;11.65;;;22.50;73.00;;;;;;5082919;28;20039;-60
2022/04/15 08:10:00;;;;;;;17.83;12.43;;;22.50;74.00;;;;;;5085770;28;20374;-60
2022/04/15 08:12:25;;;;;;;22.55;13.13;;;21.50;72.30;;;;;;5087109;28;20020;-60
2022/04/15 08:14:52;;;;;;;22.48;14.30;;;20.30;75.70;;;;;;5087143;28;20020;-60
2022/04/15 08:17:19;;;;;;;19.17;13.85;;;19.70;78.10;;;;;;5089815;28;20095;-59
2022/04/15 08:19:45;;;;;;;23.30;13.43;;;19.70;78.60;;;;;;5090185;28;20031;-58
2022/04/15 08:22:11;;;;;;;18.25;12.63;;;19.50;80.10;;;;;;5091858;28;20024;-59
2022/04/15 08:24:42;;;;;;;21.58;13.38;;;20.10;78.80;;;;;;5092575;28;20039;-59
2022/04/15 08:27:07;;;;;;;20.92;13.68;;;19.80;78.30;;;;;;5088563;28;20051;-60
2022/04/15 08:29:35;;;;;;;19.98;13.25;;;18.70;80.30;;;;;;5086142;28;20028;-58
2022/04/15 08:32:01;;;;;;;22.73;14.02;;;17.90;84.10;;;;;;5089389;28;20028;-58
2022/04/15 08:34:26;;;;;;;19.13;11.90;;;17.70;86.50;;;;;;5085792;28;20031;-60
2022/04/15 08:36:52;;;;;;;22.42;13.40;;;17.50;86.60;;;;;;5081700;28;20542;-60
2022/04/15 08:39:17;;;;;;;20.98;12.23;;;17.30;87.40;;;;;;5090068;28;20020;-60
2022/04/15 08:41:43;;;;;;;17.48;11.25;;;17.80;88.60;;;;;;5090982;28;20137;-59
2022/04/15 08:44:09;;;;;;;19.10;12.32;;;17.70;85.70;;;;;;5091549;28;20028;-60
2022/04/15 08:46:36;;;;;;;25.15;12.57;;;17.30;87.10;;;;;;5089672;28;20031;-60
2022/04/15 08:49:02;;;;;;;18.00;12.27;;;16.90;89.40;;;;;;5089729;28;20027;-60
2022/04/15 08:51:29;;;;;;;22.13;11.38;;;16.50;91.20;;;;;;5090174;28;20478;-60
2022/04/15 08:53:56;;;;;;;18.30;11.23;;;16.50;91.10;;;;;;5089981;28;20456;-59
2022/04/15 08:56:22;;;;;;;13.10;9.20;;;16.30;91.60;;;;;;5091276;28;20020;-60
2022/04/15 08:58:48;;;;;;;16.88;9.25;;;16.90;92.00;;;;;;5084851;28;20015;-60
2022/04/15 09:01:14;;;;;;;13.80;8.95;;;17.60;89.90;;;;;;5091738;28;20020;-58
2022/04/15 09:03:40;;;;;;;16.58;9.23;;;17.80;86.50;;;;;;5080445;28;20091;-62
2022/04/15 09:06:16;;;;;;;11.05;8.30;;;17.50;87.10;;;;;;5091041;28;20074;-59
2022/04/15 09:09:05;;;;;;;13.27;8.63;;;17.10;89.40;;;;;;5090566;28;20030;-59
2022/04/15 09:11:35;;;;;;;13.05;7.97;;;17.10;90.40;;;;;;5091666;28;20043;-59
2022/04/15 09:14:05;;;;;;;14.65;8.35;;;17.30;89.60;;;;;;5084922;28;20206;-59
2022/04/15 09:16:31;;;;;;;11.52;8.18;;;17.90;88.20;;;;;;5090773;28;20024;-61
2022/04/15 09:18:57;;;;;;;11.55;7.95;;;18.40;85.20;;;;;;5081130;28;20012;-60
2022/04/15 09:21:28;;;;;;;10.45;7.38;;;18.20;86.90;;;;;;5090725;28;20084;-60
2022/04/15 09:23:55;;;;;;;12.35;7.70;;;18.70;83.70;;;;;;5087582;28;20024;-60
2022/04/15 09:26:25;;;;;;;13.07;7.55;;;19.00;81.80;;;;;;5085131;28;20094;-59
2022/04/15 09:28:53;;;;;;;11.02;7.22;;;18.30;85.80;;;;;;5084108;28;20038;-60
2022/04/15 09:31:20;;;;;;;7.35;5.82;;;19.30;82.20;;;;;;5086933;28;20039;-61
2022/04/15 09:33:57;;;;;;;8.88;5.72;;;20.20;79.40;;;;;;5084393;28;20032;-59
2022/04/15 09:36:25;;;;;;;9.60;5.60;;;19.70;78.10;;;;;;5084391;28;20028;-59
2022/04/15 09:38:59;;;;;;;9.23;5.68;;;19.30;79.00;;;;;;5086353;28;20031;-60
2022/04/15 09:41:26;;;;;;;7.40;5.00;;;19.50;77.70;;;;;;5082148;28;20028;-60
2022/04/15 09:43:53;;;;;;;8.85;5.55;;;18.80;80.90;;;;;;5085198;28;20047;-60
2022/04/15 09:46:20;;;;;;;10.57;6.32;;;18.30;81.00;;;;;;5083186;28;20039;-61
2022/04/15 09:49:07;;;;;;;8.50;5.85;;;17.60;82.80;;;;;;5069053;28;20761;-60
2022/04/15 09:51:46;;;;;;;9.10;6.28;;;17.40;85.20;;;;;;5089648;28;20036;-60
2022/04/15 09:54:24;;;;;;;8.10;5.50;;;17.20;83.70;;;;;;5090868;28;20107;-60
2022/04/15 09:56:51;;;;;;;10.48;6.25;;;17.80;83.80;;;;;;5084999;28;20067;-60
2022/04/15 09:59:20;;;;;;;10.77;5.82;;;18.10;79.90;;;;;;5092110;28;20028;-59
2022/04/15 10:01:48;;;;;;;9.88;5.90;;;18.00;80.30;;;;;;5089446;28;20071;-59
2022/04/15 10:04:14;;;;;;;8.25;5.97;;;18.10;81.30;;;;;;5090206;28;20031;-60
2022/04/15 10:06:41;;;;;;;7.65;5.35;;;18.30;80.30;;;;;;5074002;22;20420;-59
2022/04/15 10:09:12;;;;;;;8.75;5.57;;;18.60;80.80;;;;;;5039533;28;20305;-58
2022/04/15 10:11:45;;;;;;;7.95;5.88;;;18.90;79.70;;;;;;5041062;28;20685;-58
2022/04/15 10:14:12;;;;;;;14.00;7.82;;;17.80;79.30;;;;;;5043646;28;20416;-58
2022/04/15 10:16:39;;;;;;;8.57;6.03;;;17.80;79.70;;;;;;5040638;28;20048;-57
2022/04/15 10:19:06;;;;;;;10.43;7.40;;;17.60;81.40;;;;;;5039024;28;20087;-58
2022/04/15 10:21:39;;;;;;;9.60;6.55;;;17.60;79.80;;;;;;5036455;28;20076;-58
2022/04/15 10:24:08;;;;;;;10.65;6.63;;;17.60;80.20;;;;;;5036210;28;20048;-58
2022/04/15 10:26:43;;;;;;;9.70;6.60;;;17.50;81.60;;;;;;5036530;28;20025;-56
2022/04/15 10:29:11;;;;;;;11.98;8.18;;;17.70;80.30;;;;;;5033139;28;20032;-57
2022/04/15 10:31:40;;;;;;;12.55;9.75;;;17.70;80.80;;;;;;5038598;28;20549;-57
2022/04/15 10:34:18;;;;;;;12.95;9.95;;;17.40;80.50;;;;;;5036396;28;20112;-56
2022/04/15 10:36:49;;;;;;;15.38;9.38;;;17.40;82.50;;;;;;5039210;28;20107;-57
2022/04/15 10:39:19;;;;;;;16.17;9.63;;;17.50;82.10;;;;;;5044409;28;20074;-57
2022/04/15 10:41:53;;;;;;;14.75;8.80;;;17.60;82.60;;;;;;5046035;28;20025;-53
2022/04/15 10:44:32;;;;;;;12.38;9.48;;;17.50;82.70;;;;;;5049278;28;20492;-58
2022/04/15 10:47:12;;;;;;;15.23;8.77;;;17.30;83.00;;;;;;5048721;28;20116;-58
2022/04/15 10:49:40;;;;;;;14.70;9.25;;;17.20;83.10;;;;;;5049400;28;20124;-57
2022/04/15 10:52:27;;;;;;;12.45;9.02;;;17.00;83.50;;;;;;5052558;28;20032;-58
2022/04/15 10:55:08;;;;;;;15.02;9.77;;;16.90;84.50;;;;;;5052706;28;20511;-57
2022/04/15 10:57:41;;;;;;;13.48;9.77;;;16.70;82.30;;;;;;5047315;28;20564;-57
2022/04/15 11:03:02;;;;;;;11.10;8.70;;;15.90;86.10;;;;;;5049157;28;20115;-58
2022/04/15 11:05:42;;;;;;;10.57;8.33;;;15.70;86.90;;;;;;5011857;28;1024076;-56
2022/04/15 11:08:15;;;;;;;12.18;8.45;;;15.80;88.80;;;;;;5050470;28;20108;-58
2022/04/15 11:10:58;;;;;;;11.70;7.78;;;15.80;87.30;;;;;;5053264;28;20028;-60
2022/04/15 11:13:27;;;;;;;10.05;7.82;;;15.50;87.40;;;;;;5053565;28;20025;-59
2022/04/15 11:16:08;;;;;;;12.10;7.47;;;15.70;87.30;;;;;;5052596;28;20040;-58
2022/04/15 11:18:53;;;;;;;12.02;8.10;;;16.00;86.40;;;;;;5053054;28;20029;-58
2022/04/15 11:21:24;;;;;;;11.02;6.95;;;16.10;86.40;;;;;;5053040;28;20043;-58
2022/04/15 11:23:53;;;;;;;10.20;6.88;;;16.20;86.30;;;;;;5053535;28;20013;-61
2022/04/15 11:26:20;;;;;;;8.93;7.47;;;16.30;85.90;;;;;;5054546;28;20461;-59
2022/04/15 11:28:47;;;;;;;9.80;7.07;;;16.20;86.70;;;;;;5054605;28;20032;-60
2022/04/15 11:31:22;;;;;;;7.60;5.80;;;16.20;86.10;;;;;;5054731;28;20029;-58
2022/04/15 11:33:48;;;;;;;6.35;5.35;;;16.20;83.00;;;;;;5054548;28;20063;-59
2022/04/15 11:36:13;;;;;;;8.75;5.88;;;16.00;83.50;;;;;;5053855;28;20035;-57
2022/04/15 11:38:39;;;;;;;5.82;5.22;;;15.80;85.00;;;;;;5054031;28;20082;-59
2022/04/15 11:41:05;;;;;;;5.97;5.30;;;15.90;85.10;;;;;;5054110;28;20021;-59
2022/04/15 11:43:31;;;;;;;8.73;4.80;;;15.60;87.00;;;;;;5054335;28;20029;-59
2022/04/15 11:45:56;;;;;;;8.00;4.22;;;15.70;86.50;;;;;;5054344;28;20036;-59
2022/04/15 11:48:26;;;;;;;8.63;5.57;;;15.60;87.80;;;;;;5054065;28;20033;-58
2022/04/15 11:50:54;;;;;;;9.38;4.57;;;15.50;85.30;;;;;;5053424;28;20067;-57
2022/04/15 11:53:21;;;;;;;12.95;4.47;;;15.60;87.40;;;;;;5054153;28;20104;-59
2022/04/15 11:55:55;;;;;;;7.63;4.75;;;15.60;86.20;;;;;;5053834;28;20031;-59
2022/04/15 11:58:22;;;;;;;11.02;5.90;;;15.60;88.60;;;;;;5053721;28;20075;-58
2022/04/15 12:00:56;;;;;;;7.22;4.35;;;15.50;86.30;;;;;;5053873;28;20120;-59
2022/04/15 12:03:22;;;;;;;6.65;4.45;;;15.40;87.90;;;;;;5053868;28;20492;-61
2022/04/15 12:05:49;;;;;;;6.90;4.40;;;15.40;87.50;;;;;;5053723;28;20061;-61
2022/04/15 12:08:16;;;;;;;4.60;3.45;;;15.40;87.10;;;;;;5053482;28;20112;-61
2022/04/15 12:10:44;;;;;;;4.22;3.38;;;15.40;86.20;;;;;;5059837;28;20044;-62
2022/04/15 12:13:10;;;;;;;5.28;3.83;;;15.40;88.10;;;;;;5053485;28;20032;-55
2022/04/15 12:15:36;;;;;;;5.45;3.42;;;15.40;88.40;;;;;;5053805;28;20029;-58
2022/04/15 12:18:03;;;;;;;5.95;3.15;;;15.40;87.60;;;;;;5053259;28;20036;-56
2022/04/15 12:20:30;;;;;;;8.70;3.47;;;15.30;88.10;;;;;;5053791;28;20096;-58
2022/04/15 12:22:57;;;;;;;3.90;2.95;;;15.20;86.30;;;;;;5053591;28;20021;-58
2022/04/15 12:25:23;;;;;;;5.38;2.97;;;15.20;87.90;;;;;;5053197;28;20174;-60
2022/04/15 12:27:49;;;;;;;7.78;3.75;;;15.30;88.50;;;;;;5053399;28;20032;-59
2022/04/15 12:30:39;;;;;;;4.90;3.20;;;15.40;88.80;;;;;;5053036;28;20031;-59
2022/04/15 12:33:08;;;;;;;4.03;2.70;;;15.40;87.90;;;;;;5053409;28;20032;-59
2022/04/15 12:35:35;;;;;;;4.47;3.00;;;15.50;87.20;;;;;;5052320;28;20070;-59
2022/04/15 12:38:00;;;;;;;6.30;2.72;;;15.50;86.90;;;;;;5052750;28;20025;-60
2022/04/15 12:40:32;;;;;;;4.50;2.95;;;15.50;86.40;;;;;;5052758;28;20502;-61
2022/04/15 12:43:11;;;;;;;7.35;3.53;;;15.50;86.20;;;;;;5052895;28;20519;-59
2022/04/15 12:45:53;;;;;;;4.95;2.78;;;15.50;85.40;;;;;;5053054;28;20480;-60
2022/04/15 12:48:19;;;;;;;4.57;2.30;;;15.50;87.20;;;;;;5052379;28;20040;-60
2022/04/15 12:50:46;;;;;;;9.05;3.30;;;15.60;87.90;;;;;;5052688;28;20033;-59